Terminal Aerodrome Forecast
Issued by NWS North Platte, NE

Home | Current Version | Previous Version | Text Only | Print | Product List | Glossary On
Versions: 1 2 3 4 5 6 7 8 9 10 11 12 13 14 15
000
FTUS43 KLBF 291720
TAFLBF
TAF
KLBF 291720Z 2918/3018 15008KT P6SM BKN110
     FM292100 15010KT P6SM VCTS BKN060CB OVC100
     FM300000 11004KT P6SM BKN100 BKN250
      TEMPO 3000/3004 5SM -TSRA OVC050CB
     FM300600 VRB06KT 3SM BR BKN050
     FM301200 VRB04KT 1SM BR BKN015
     FM301400 10004KT P6SM OVC060=

USA.gov is the U.S. government's official web portal to all federal, state and local government web resources and services.